HISTORICAL SENSOR DATA

Sensor Data Report

DB LIVE
CURRENT TIME--:--:--
DEVICE NETWORK Gateway Status
13 ESP · realtime ~1s · history 60s
Weather WS-MOD-01
OFFLINE
Actuator ACT-MOD-01
OFFLINE
Mainboard L3 MB-L3-01
ONLINE
Mainboard L5 MB-L5-01
OFFLINE
Remote AC AC-REMOTE-01
OFFLINE
PZEM L3-01 PWR-L3-01
OFFLINE
PZEM L3-02 PWR-L3-02
OFFLINE
PZEM L3-03 PWR-L3-03
OFFLINE
PZEM L3-04 PWR-L3-04
OFFLINE
PZEM L5-01 PWR-L5-01
OFFLINE
PZEM L5-02 PWR-L5-02
OFFLINE
PZEM L5-03 PWR-L5-03
OFFLINE
PZEM L5-04 PWR-L5-04
OFFLINE
REPORT FILTER

Periode & Sensor

DATABASE HISTORY
RESET
QUICK RANGE Hari ini 7 hari 30 hari
PERIODE27 Aug 2026sampai 02 Sep 2026
TOTAL DATA40,278sensor readings
MINIMUM-0.50sesuai filter
AVERAGE56.78sesuai filter
MAXIMUM998.00sesuai filter
REPORT RESULT

Data Sensor

27/08/2026 — 02/09/2026 EXPORT CSV
NOTANGGALWAKTUDEVICECHANNELSENSORVALUEUNIT
11301 02/09/2026 14:55:03 MB-L3-01Mainboard Lantai 3 L3-AI-05 Analog Input 5 3.12 V
11302 02/09/2026 14:55:03 MB-L3-01Mainboard Lantai 3 L3-SHT-02-T SHT20 2 Temperature 32.10 °C
11303 02/09/2026 14:55:03 MB-L3-01Mainboard Lantai 3 L3-BGT-03 Black Globe Temperature 3 29.10 °C
11304 02/09/2026 14:55:03 MB-L3-01Mainboard Lantai 3 L3-LUX-05 Illuminance / LUX 5 29.60 lux
11305 02/09/2026 14:55:02 MB-L5-01Mainboard Lantai 5 L5-AI-01 Analog Input 1 3.05 V
11306 02/09/2026 14:55:02 MB-L5-01Mainboard Lantai 5 L5-SHT-01-RH SHT20 1 Humidity 48.50 %RH
11307 02/09/2026 14:55:02 MB-L5-01Mainboard Lantai 5 L5-BGT-03 Black Globe Temperature 3 29.70 °C
11308 02/09/2026 14:55:02 MB-L5-01Mainboard Lantai 5 L5-LUX-01 Illuminance / LUX 1 224.50 lux
11309 02/09/2026 14:55:02 MB-L5-01Mainboard Lantai 5 L5-LUX-03 Illuminance / LUX 3 158.20 lux
11310 02/09/2026 14:55:02 MB-L5-01Mainboard Lantai 5 L5-BGT-02 Black Globe Temperature 2 29.60 °C
11311 02/09/2026 14:55:02 MB-L5-01Mainboard Lantai 5 L5-BGT-01 Black Globe Temperature 1 29.60 °C
11312 02/09/2026 14:55:02 MB-L5-01Mainboard Lantai 5 L5-HFT-02 Heat Flow Temperature 2 29.90 °C
11313 02/09/2026 14:55:02 MB-L5-01Mainboard Lantai 5 L5-HFT-01 Heat Flow Temperature 1 30.00 °C
11314 02/09/2026 14:55:02 MB-L5-01Mainboard Lantai 5 L5-LUX-06 Illuminance / LUX 6 213.10 lux
11315 02/09/2026 14:55:02 MB-L5-01Mainboard Lantai 5 L5-ST-02 Surface Temperature 2 30.40 °C
11316 02/09/2026 14:55:02 MB-L5-01Mainboard Lantai 5 L5-LUX-02 Illuminance / LUX 2 175.00 lux
11317 02/09/2026 14:55:02 MB-L5-01Mainboard Lantai 5 L5-ST-01 Surface Temperature 1 30.10 °C
11318 02/09/2026 14:55:02 MB-L5-01Mainboard Lantai 5 L5-SHT-01-T SHT20 1 Temperature 32.30 °C
11319 02/09/2026 14:55:02 MB-L5-01Mainboard Lantai 5 L5-RAD-02 Radiation 2 1.00 W/m²
11320 02/09/2026 14:55:02 MB-L5-01Mainboard Lantai 5 L5-AI-06 Analog Input 6 3.05 V
11321 02/09/2026 14:55:02 MB-L5-01Mainboard Lantai 5 L5-SHT-02-RH SHT20 2 Humidity 48.40 %RH
11322 02/09/2026 14:55:02 MB-L5-01Mainboard Lantai 5 L5-LUX-04 Illuminance / LUX 4 214.70 lux
11323 02/09/2026 14:55:02 MB-L5-01Mainboard Lantai 5 L5-AI-05 Analog Input 5 3.05 V
11324 02/09/2026 14:55:02 MB-L5-01Mainboard Lantai 5 L5-SHT-03-T SHT20 3 Temperature 32.20 °C
11325 02/09/2026 14:55:02 MB-L5-01Mainboard Lantai 5 L5-SHT-02-T SHT20 2 Temperature 32.20 °C
11326 02/09/2026 14:55:02 MB-L5-01Mainboard Lantai 5 L5-SHT-03-RH SHT20 3 Humidity 49.00 %RH
11327 02/09/2026 14:55:02 MB-L5-01Mainboard Lantai 5 L5-AI-04 Analog Input 4 3.05 V
11328 02/09/2026 14:55:02 MB-L5-01Mainboard Lantai 5 L5-LUX-05 Illuminance / LUX 5 413.90 lux
11329 02/09/2026 14:55:02 MB-L5-01Mainboard Lantai 5 L5-RAD-01 Radiation 1 1.00 W/m²
11330 02/09/2026 14:55:02 MB-L5-01Mainboard Lantai 5 L5-AI-03 Analog Input 3 3.05 V
11331 02/09/2026 14:55:02 MB-L5-01Mainboard Lantai 5 L5-AI-02 Analog Input 2 3.05 V
11332 02/09/2026 14:55:01 MB-L3-01Mainboard Lantai 3 L3-LUX-02 Illuminance / LUX 2 24.90 lux
11333 02/09/2026 14:55:01 MB-L3-01Mainboard Lantai 3 L3-AI-02 Analog Input 2 3.12 V
11334 02/09/2026 14:55:01 MB-L3-01Mainboard Lantai 3 L3-LUX-04 Illuminance / LUX 4 35.70 lux
11335 02/09/2026 14:55:01 MB-L3-01Mainboard Lantai 3 L3-HFT-02 Heat Flow Temperature 2 29.20 °C
11336 02/09/2026 14:55:01 MB-L3-01Mainboard Lantai 3 L3-SHT-01-T SHT20 1 Temperature 32.30 °C
11337 02/09/2026 14:55:01 MB-L3-01Mainboard Lantai 3 L3-LUX-03 Illuminance / LUX 3 85.60 lux
11338 02/09/2026 14:55:01 MB-L3-01Mainboard Lantai 3 L3-SHT-01-RH SHT20 1 Humidity 48.60 %RH
11339 02/09/2026 14:55:01 MB-L3-01Mainboard Lantai 3 L3-AI-03 Analog Input 3 3.12 V
11340 02/09/2026 14:55:01 MB-L3-01Mainboard Lantai 3 L3-SHT-03-RH SHT20 3 Humidity 49.30 %RH
11341 02/09/2026 14:55:01 MB-L3-01Mainboard Lantai 3 L3-SHT-02-RH SHT20 2 Humidity 48.40 %RH
11342 02/09/2026 14:55:01 MB-L3-01Mainboard Lantai 3 L3-BGT-01 Black Globe Temperature 1 29.80 °C
11343 02/09/2026 14:55:01 MB-L3-01Mainboard Lantai 3 L3-LUX-01 Illuminance / LUX 1 11.80 lux
11344 02/09/2026 14:55:01 MB-L3-01Mainboard Lantai 3 L3-RAD-02 Radiation 2 1.00 W/m²
11345 02/09/2026 14:55:01 MB-L3-01Mainboard Lantai 3 L3-SHT-03-T SHT20 3 Temperature 31.80 °C
11346 02/09/2026 14:55:01 MB-L3-01Mainboard Lantai 3 L3-AI-04 Analog Input 4 3.12 V
11347 02/09/2026 14:55:01 MB-L3-01Mainboard Lantai 3 L3-BGT-02 Black Globe Temperature 2 29.70 °C
11348 02/09/2026 14:55:01 MB-L3-01Mainboard Lantai 3 L3-RAD-01 Radiation 1 1.00 W/m²
11349 02/09/2026 14:55:01 MB-L3-01Mainboard Lantai 3 L3-ST-01 Surface Temperature 1 30.00 °C
11350 02/09/2026 14:55:01 MB-L3-01Mainboard Lantai 3 L3-AI-05 Analog Input 5 3.12 V
11351 02/09/2026 14:55:01 MB-L3-01Mainboard Lantai 3 L3-SHT-02-T SHT20 2 Temperature 32.00 °C
11352 02/09/2026 14:55:01 MB-L3-01Mainboard Lantai 3 L3-BGT-03 Black Globe Temperature 3 29.20 °C
11353 02/09/2026 14:55:01 MB-L3-01Mainboard Lantai 3 L3-ST-02 Surface Temperature 2 30.20 °C
11354 02/09/2026 14:55:01 MB-L3-01Mainboard Lantai 3 L3-AI-06 Analog Input 6 3.12 V
11355 02/09/2026 14:55:01 MB-L3-01Mainboard Lantai 3 L3-LUX-06 Illuminance / LUX 6 26.00 lux
11356 02/09/2026 14:55:01 MB-L3-01Mainboard Lantai 3 L3-AI-01 Analog Input 1 3.12 V
11357 02/09/2026 14:55:01 MB-L3-01Mainboard Lantai 3 L3-HFT-01 Heat Flow Temperature 1 29.70 °C
11358 02/09/2026 14:55:00 MB-L5-01Mainboard Lantai 5 L5-LUX-01 Illuminance / LUX 1 228.30 lux
11359 02/09/2026 14:55:00 MB-L5-01Mainboard Lantai 5 L5-LUX-03 Illuminance / LUX 3 160.90 lux
11360 02/09/2026 14:55:00 MB-L5-01Mainboard Lantai 5 L5-BGT-02 Black Globe Temperature 2 29.60 °C
11361 02/09/2026 14:55:00 MB-L5-01Mainboard Lantai 5 L5-BGT-01 Black Globe Temperature 1 29.60 °C
11362 02/09/2026 14:55:00 MB-L5-01Mainboard Lantai 5 L5-HFT-02 Heat Flow Temperature 2 29.90 °C
11363 02/09/2026 14:55:00 MB-L5-01Mainboard Lantai 5 L5-HFT-01 Heat Flow Temperature 1 30.00 °C
11364 02/09/2026 14:55:00 MB-L5-01Mainboard Lantai 5 L5-LUX-06 Illuminance / LUX 6 235.40 lux
11365 02/09/2026 14:55:00 MB-L5-01Mainboard Lantai 5 L5-ST-02 Surface Temperature 2 30.40 °C
11366 02/09/2026 14:55:00 MB-L5-01Mainboard Lantai 5 L5-LUX-02 Illuminance / LUX 2 191.60 lux
11367 02/09/2026 14:55:00 MB-L5-01Mainboard Lantai 5 L5-ST-01 Surface Temperature 1 30.00 °C
11368 02/09/2026 14:55:00 MB-L5-01Mainboard Lantai 5 L5-SHT-01-T SHT20 1 Temperature 32.30 °C
11369 02/09/2026 14:55:00 MB-L5-01Mainboard Lantai 5 L5-RAD-02 Radiation 2 1.00 W/m²
11370 02/09/2026 14:55:00 MB-L5-01Mainboard Lantai 5 L5-AI-06 Analog Input 6 3.05 V
11371 02/09/2026 14:55:00 MB-L5-01Mainboard Lantai 5 L5-SHT-02-RH SHT20 2 Humidity 48.50 %RH
11372 02/09/2026 14:55:00 MB-L5-01Mainboard Lantai 5 L5-LUX-04 Illuminance / LUX 4 239.90 lux
11373 02/09/2026 14:55:00 MB-L5-01Mainboard Lantai 5 L5-AI-05 Analog Input 5 3.05 V
11374 02/09/2026 14:55:00 MB-L5-01Mainboard Lantai 5 L5-SHT-03-T SHT20 3 Temperature 32.20 °C
11375 02/09/2026 14:55:00 MB-L5-01Mainboard Lantai 5 L5-SHT-02-T SHT20 2 Temperature 32.30 °C
11376 02/09/2026 14:55:00 MB-L5-01Mainboard Lantai 5 L5-SHT-03-RH SHT20 3 Humidity 49.00 %RH
11377 02/09/2026 14:55:00 MB-L5-01Mainboard Lantai 5 L5-AI-04 Analog Input 4 3.05 V
11378 02/09/2026 14:55:00 MB-L5-01Mainboard Lantai 5 L5-LUX-05 Illuminance / LUX 5 423.80 lux
11379 02/09/2026 14:55:00 MB-L5-01Mainboard Lantai 5 L5-RAD-01 Radiation 1 2.00 W/m²
11380 02/09/2026 14:55:00 MB-L5-01Mainboard Lantai 5 L5-AI-03 Analog Input 3 3.05 V
11381 02/09/2026 14:55:00 MB-L5-01Mainboard Lantai 5 L5-AI-02 Analog Input 2 3.05 V
11382 02/09/2026 14:55:00 MB-L5-01Mainboard Lantai 5 L5-AI-01 Analog Input 1 3.05 V
11383 02/09/2026 14:55:00 MB-L5-01Mainboard Lantai 5 L5-SHT-01-RH SHT20 1 Humidity 48.40 %RH
11384 02/09/2026 14:55:00 MB-L5-01Mainboard Lantai 5 L5-BGT-03 Black Globe Temperature 3 29.70 °C
11385 02/09/2026 14:54:59 MB-L3-01Mainboard Lantai 3 L3-LUX-03 Illuminance / LUX 3 80.20 lux
11386 02/09/2026 14:54:59 MB-L3-01Mainboard Lantai 3 L3-SHT-01-RH SHT20 1 Humidity 48.50 %RH
11387 02/09/2026 14:54:59 MB-L3-01Mainboard Lantai 3 L3-AI-03 Analog Input 3 3.12 V
11388 02/09/2026 14:54:59 MB-L3-01Mainboard Lantai 3 L3-SHT-03-RH SHT20 3 Humidity 49.10 %RH
11389 02/09/2026 14:54:59 MB-L3-01Mainboard Lantai 3 L3-SHT-02-RH SHT20 2 Humidity 48.40 %RH
11390 02/09/2026 14:54:59 MB-L3-01Mainboard Lantai 3 L3-BGT-01 Black Globe Temperature 1 29.70 °C
11391 02/09/2026 14:54:59 MB-L3-01Mainboard Lantai 3 L3-LUX-01 Illuminance / LUX 1 15.00 lux
11392 02/09/2026 14:54:59 MB-L3-01Mainboard Lantai 3 L3-RAD-02 Radiation 2 1.00 W/m²
11393 02/09/2026 14:54:59 MB-L3-01Mainboard Lantai 3 L3-SHT-03-T SHT20 3 Temperature 31.80 °C
11394 02/09/2026 14:54:59 MB-L3-01Mainboard Lantai 3 L3-AI-04 Analog Input 4 3.12 V
11395 02/09/2026 14:54:59 MB-L3-01Mainboard Lantai 3 L3-BGT-02 Black Globe Temperature 2 29.70 °C
11396 02/09/2026 14:54:59 MB-L3-01Mainboard Lantai 3 L3-RAD-01 Radiation 1 1.00 W/m²
11397 02/09/2026 14:54:59 MB-L3-01Mainboard Lantai 3 L3-ST-01 Surface Temperature 1 30.10 °C
11398 02/09/2026 14:54:59 MB-L3-01Mainboard Lantai 3 L3-AI-05 Analog Input 5 3.12 V
11399 02/09/2026 14:54:59 MB-L3-01Mainboard Lantai 3 L3-SHT-02-T SHT20 2 Temperature 32.00 °C
11400 02/09/2026 14:54:59 MB-L3-01Mainboard Lantai 3 L3-BGT-03 Black Globe Temperature 3 29.30 °C
Menampilkan maksimal 100 data per halaman